createdAt,value
2023-03-23T15:59:10.941Z,37.90
2023-03-23T16:01:41.175Z,38.40
2023-03-23T16:04:13.496Z,38.60
2023-03-23T16:06:41.552Z,38.70
2023-03-23T16:09:13.400Z,38.60
2023-03-23T16:11:40.749Z,39.10
2023-03-23T16:14:08.351Z,39.40
2023-03-23T16:16:50.274Z,39.80
2023-03-23T16:19:20.408Z,39.80
2023-03-23T16:21:47.887Z,40.30
2023-03-23T16:24:15.159Z,40.30
2023-03-23T16:26:42.481Z,40.20
2023-03-23T16:29:26.209Z,40.30
2023-03-23T16:31:56.080Z,40.40
2023-03-23T16:34:23.809Z,41.00
2023-03-23T16:36:51.154Z,41.40
2023-03-23T16:39:19.230Z,42.10
2023-03-23T16:41:46.411Z,42.80
2023-03-23T16:44:13.639Z,43.40
2023-03-23T16:46:41.200Z,44.00
2023-03-23T16:49:08.515Z,44.80
2023-03-23T16:51:35.958Z,45.80
2023-03-23T16:54:03.299Z,45.90
2023-03-23T16:56:30.930Z,45.90
2023-03-23T16:58:58.318Z,46.10
2023-03-23T17:01:25.812Z,46.40
2023-03-23T17:03:54.395Z,46.60
2023-03-23T17:06:21.818Z,46.70
2023-03-23T17:08:49.069Z,46.80
2023-03-23T17:11:16.636Z,47.00
2023-03-23T17:13:43.970Z,47.20
2023-03-23T17:16:11.371Z,47.30
2023-03-23T17:18:38.662Z,47.60
2023-03-23T17:21:06.807Z,47.70
2023-03-23T17:23:34.401Z,47.90
2023-03-23T17:26:01.799Z,48.20
2023-03-23T17:28:29.115Z,48.50
2023-03-23T17:30:56.535Z,48.90
2023-03-23T17:33:23.839Z,49.00
2023-03-23T17:35:52.116Z,49.10
2023-03-23T17:38:20.188Z,50.00
2023-03-23T17:40:47.609Z,49.70
2023-03-23T17:43:14.822Z,49.80
2023-03-23T17:45:44.360Z,49.90
2023-03-23T17:48:13.202Z,50.30
2023-03-23T17:50:41.215Z,50.50
2023-03-23T17:53:08.469Z,50.80
2023-03-23T17:55:36.229Z,50.90
2023-03-23T17:58:03.482Z,50.60
2023-03-23T18:00:31.064Z,50.60
2023-03-23T18:02:58.455Z,50.50
2023-03-23T18:05:27.930Z,50.40
2023-03-23T18:07:55.344Z,50.20
2023-03-23T18:10:22.635Z,50.10
2023-03-23T18:12:51.589Z,50.10
2023-03-23T18:15:19.175Z,50.10
2023-03-23T18:17:48.351Z,50.10
2023-03-23T18:20:15.889Z,50.00
2023-03-23T18:22:43.089Z,49.90
2023-03-23T18:25:10.384Z,49.90
2023-03-23T18:27:39.042Z,49.80
2023-03-23T18:30:07.471Z,49.80
2023-03-23T18:32:40.535Z,49.70
2023-03-23T18:35:10.854Z,49.80
2023-03-23T18:37:43.067Z,49.80
2023-03-23T18:40:11.404Z,49.50
2023-03-23T18:42:41.916Z,49.60
2023-03-23T18:45:09.888Z,49.80
2023-03-23T18:47:38.681Z,50.20
2023-03-23T18:50:08.322Z,50.70
2023-03-23T18:52:36.063Z,51.20
2023-03-23T18:55:04.040Z,51.30
2023-03-23T18:57:31.478Z,50.90
2023-03-23T18:59:58.749Z,50.80
2023-03-23T19:02:26.031Z,51.20
2023-03-23T19:04:53.685Z,51.10
2023-03-23T19:07:21.076Z,51.00
2023-03-23T19:09:48.397Z,50.90
2023-03-23T19:12:16.136Z,51.00
2023-03-23T19:14:43.857Z,51.20
2023-03-23T19:17:11.580Z,51.00
2023-03-23T19:19:39.118Z,51.20
2023-03-23T19:22:08.567Z,51.20
2023-03-23T19:24:36.564Z,51.00
2023-03-23T19:27:04.055Z,51.10
2023-03-23T19:29:31.619Z,51.30
2023-03-23T19:31:59.093Z,51.50
2023-03-23T19:34:28.179Z,50.80
2023-03-23T19:37:04.127Z,51.10
2023-03-23T19:39:34.250Z,51.40
2023-03-23T19:42:02.073Z,51.50
2023-03-23T19:44:29.550Z,51.50
2023-03-23T19:46:57.865Z,51.50
2023-03-23T19:49:25.675Z,51.20
2023-03-23T19:52:09.061Z,51.30
2023-03-23T19:54:39.473Z,51.30
2023-03-23T19:57:08.146Z,51.50
2023-03-23T19:59:36.453Z,51.30
2023-03-23T20:02:04.099Z,51.60
2023-03-23T20:04:31.765Z,51.80
2023-03-23T20:07:00.552Z,52.00
2023-03-23T20:09:28.560Z,52.10
2023-03-23T20:12:01.886Z,52.00
2023-03-23T20:14:29.435Z,52.30
2023-03-23T20:16:56.859Z,52.30
2023-03-23T20:19:24.311Z,52.50
2023-03-23T20:21:52.297Z,53.50
2023-03-23T20:24:20.152Z,54.60
2023-03-23T20:26:47.704Z,54.50
2023-03-23T20:29:15.118Z,54.20
2023-03-23T20:31:42.561Z,53.50
2023-03-23T20:34:14.409Z,53.30
2023-03-23T20:36:45.241Z,53.60
2023-03-23T20:39:23.355Z,53.40
2023-03-23T20:41:54.491Z,54.20
2023-03-23T20:44:23.371Z,54.50
2023-03-23T20:46:52.430Z,54.40
2023-03-23T20:49:20.914Z,54.70
2023-03-23T20:51:49.078Z,54.70
2023-03-23T20:54:18.731Z,54.80
2023-03-23T20:56:47.073Z,54.80
2023-03-23T20:59:15.961Z,54.80
2023-03-23T21:01:44.673Z,55.50
2023-03-23T21:04:18.777Z,55.60
2023-03-23T21:06:49.126Z,55.80
2023-03-23T21:09:17.674Z,56.50
2023-03-23T21:11:45.863Z,57.50
2023-03-23T21:14:13.811Z,57.80
2023-03-23T21:16:41.950Z,57.70
2023-03-23T21:19:09.746Z,57.70
2023-03-23T21:21:37.246Z,57.60
2023-03-23T21:24:04.701Z,58.20
2023-03-23T21:26:31.996Z,58.10
2023-03-23T21:29:00.471Z,59.00
2023-03-23T21:31:33.398Z,59.60
2023-03-23T21:34:01.411Z,61.10
2023-03-23T21:36:29.379Z,61.50
2023-03-23T21:38:57.372Z,61.10
2023-03-23T21:41:26.052Z,60.90
2023-03-23T21:43:54.239Z,62.20
2023-03-23T21:46:21.600Z,62.90
2023-03-23T21:48:51.693Z,63.30
2023-03-23T21:51:24.048Z,64.00
2023-03-23T21:53:54.404Z,64.60
2023-03-23T21:56:24.708Z,65.10
2023-03-23T21:58:52.939Z,66.40
2023-03-23T22:01:21.467Z,64.80
2023-03-23T22:04:07.747Z,64.80
2023-03-23T22:06:53.826Z,65.00
2023-03-23T22:09:21.073Z,64.00
2023-03-23T22:11:48.306Z,63.50
2023-03-23T22:14:15.562Z,63.20
2023-03-23T22:16:42.941Z,62.60
2023-03-23T22:19:10.352Z,62.40
2023-03-23T22:21:38.289Z,62.00
2023-03-23T22:24:06.000Z,61.80
2023-03-23T22:26:33.361Z,62.10
2023-03-23T22:29:01.825Z,62.00
2023-03-23T22:31:34.184Z,62.00
2023-03-23T22:34:03.715Z,61.90
2023-03-23T22:36:33.456Z,62.00
2023-03-23T22:39:01.650Z,61.90
2023-03-23T22:41:32.016Z,62.00
2023-03-23T22:43:59.665Z,61.90
2023-03-23T22:46:27.383Z,61.80
2023-03-23T22:48:54.932Z,61.60
2023-03-23T22:51:23.955Z,61.40
2023-03-23T22:53:51.333Z,61.40
2023-03-23T22:56:20.193Z,61.00
2023-03-23T22:58:47.861Z,60.80
2023-03-23T23:01:20.868Z,60.80
2023-03-23T23:03:48.771Z,61.30
2023-03-23T23:06:17.492Z,61.90
2023-03-23T23:08:46.806Z,62.90
2023-03-23T23:11:16.449Z,63.40
2023-03-23T23:13:44.971Z,64.10
2023-03-23T23:16:14.208Z,64.90
2023-03-23T23:18:41.954Z,65.20
2023-03-23T23:21:12.638Z,66.60
2023-03-23T23:23:40.600Z,66.10
2023-03-23T23:26:08.579Z,66.50
2023-03-23T23:28:36.548Z,66.60
2023-03-23T23:31:06.374Z,66.80
2023-03-23T23:33:33.666Z,67.00
2023-03-23T23:36:02.480Z,66.90
2023-03-23T23:38:29.783Z,67.00
2023-03-23T23:41:01.245Z,66.80
2023-03-23T23:43:28.501Z,66.60
2023-03-23T23:45:56.644Z,66.30
2023-03-23T23:48:24.352Z,66.20
2023-03-23T23:50:52.113Z,66.10
2023-03-23T23:53:23.028Z,66.10
2023-03-23T23:55:50.422Z,66.30
2023-03-23T23:58:18.344Z,66.60
